Time;durP1;ratioP1;P1;durP2;ratioP2;P2;SDS_P1;SDS_P2;PMS_P1;PMS_P2;Temp;Humidity;BMP_temperature;BMP_pressure;BME280_temperature;BME280_humidity;BME280_pressure;Samples;Min_cycle;Max_cycle;Signal;HPM_P1;HPM_P2
2021/04/10 00:01:56;;;;;;;8.52;8.02;;;19.20;99.90;;;;;;5076813;28;20527;-62
2021/04/10 00:04:23;;;;;;;9.30;8.40;;;19.30;99.90;;;;;;5076788;28;20024;-62
2021/04/10 00:06:50;;;;;;;9.68;8.45;;;19.40;99.90;;;;;;5076769;28;20024;-63
2021/04/10 00:09:18;;;;;;;8.32;7.65;;;19.60;99.90;;;;;;5076687;28;20074;-62
2021/04/10 00:11:46;;;;;;;8.32;7.63;;;19.70;99.90;;;;;;5076735;28;20028;-62
2021/04/10 00:14:15;;;;;;;7.50;7.00;;;19.70;99.90;;;;;;5076605;28;20427;-61
2021/04/10 00:16:42;;;;;;;7.80;7.30;;;19.60;99.50;;;;;;5076375;28;20107;-61
2021/04/10 00:19:10;;;;;;;8.20;7.50;;;19.70;99.30;;;;;;5076024;28;20082;-61
2021/04/10 00:21:37;;;;;;;7.60;7.10;;;19.70;98.50;;;;;;5074865;28;20025;-59
2021/04/10 00:24:05;;;;;;;7.90;7.45;;;19.90;98.80;;;;;;5076182;28;20189;-60
2021/04/10 00:26:32;;;;;;;8.10;7.60;;;20.00;98.00;;;;;;5076179;28;20119;-59
2021/04/10 00:28:59;;;;;;;8.05;7.47;;;20.10;98.30;;;;;;5076140;28;20027;-59
2021/04/10 00:31:27;;;;;;;7.75;7.20;;;20.10;97.10;;;;;;5075931;28;20029;-60
2021/04/10 00:33:54;;;;;;;7.70;7.20;;;20.20;97.90;;;;;;5076108;28;20027;-61
2021/04/10 00:36:21;;;;;;;7.38;6.90;;;20.20;96.30;;;;;;5075911;28;20507;-60
2021/04/10 00:38:48;;;;;;;7.45;6.93;;;20.40;96.70;;;;;;5075649;28;20049;-59
2021/04/10 00:41:16;;;;;;;7.90;7.30;;;20.80;97.60;;;;;;5075926;28;20494;-59
2021/04/10 00:43:43;;;;;;;7.38;6.97;;;20.80;95.80;;;;;;5075777;28;20089;-60
2021/04/10 00:46:10;;;;;;;7.25;6.78;;;20.60;95.10;;;;;;5075875;28;20016;-59
2021/04/10 00:48:38;;;;;;;7.90;7.43;;;20.50;95.80;;;;;;5075817;28;20021;-60
2021/04/10 00:51:05;;;;;;;7.30;6.90;;;20.80;95.80;;;;;;5075714;28;20488;-59
2021/04/10 00:53:34;;;;;;;7.82;7.32;;;20.80;95.20;;;;;;5075801;28;20026;-60
2021/04/10 00:56:04;;;;;;;7.35;6.90;;;20.90;96.80;;;;;;5075699;28;20028;-60
2021/04/10 00:58:33;;;;;;;7.28;6.80;;;20.80;95.40;;;;;;5075500;28;20016;-59
2021/04/10 01:01:05;;;;;;;8.68;6.60;;;21.10;95.90;;;;;;5075420;28;20032;-58
2021/04/10 01:03:33;;;;;;;7.25;6.70;;;20.90;94.50;;;;;;5075299;28;20388;-60
2021/04/10 01:06:00;;;;;;;7.07;6.78;;;21.10;95.60;;;;;;5074177;28;20051;-59
2021/04/10 01:08:29;;;;;;;7.88;7.10;;;21.20;96.00;;;;;;5074807;28;20058;-60
2021/04/10 01:11:05;;;;;;;6.88;6.47;;;21.30;94.60;;;;;;5075358;28;20024;-59
2021/04/10 01:13:42;;;;;;;7.40;6.90;;;21.10;95.00;;;;;;5075522;28;20568;-59
2021/04/10 01:16:12;;;;;;;6.80;6.40;;;21.50;95.30;;;;;;5075278;28;20434;-59
2021/04/10 01:18:59;;;;;;;6.15;5.65;;;21.70;94.90;;;;;;5075396;28;20028;-59
2021/04/10 01:21:38;;;;;;;7.95;7.22;;;21.60;94.30;;;;;;5075190;28;20032;-59
2021/04/10 01:24:24;;;;;;;7.00;6.60;;;21.30;94.80;;;;;;5075327;28;20096;-59
2021/04/10 01:27:00;;;;;;;7.22;6.68;;;21.40;93.90;;;;;;5075287;28;20525;-59
2021/04/10 01:29:27;;;;;;;7.32;6.90;;;21.60;95.00;;;;;;5075120;28;20023;-59
2021/04/10 01:31:56;;;;;;;7.15;6.65;;;21.90;94.80;;;;;;5075284;28;20531;-59
2021/04/10 01:34:30;;;;;;;8.40;7.70;;;22.00;93.80;;;;;;5075037;28;20115;-59
2021/04/10 01:37:23;;;;;;;6.97;6.50;;;21.60;93.00;;;;;;5075026;28;20102;-60
2021/04/10 01:39:51;;;;;;;7.80;7.30;;;21.30;93.70;;;;;;5074333;28;20098;-59
2021/04/10 01:42:23;;;;;;;8.02;7.45;;;21.40;94.00;;;;;;5075089;28;20104;-59
2021/04/10 01:44:52;;;;;;;7.57;7.07;;;21.50;94.30;;;;;;5075178;28;20023;-59
2021/04/10 01:47:20;;;;;;;7.78;7.13;;;21.90;94.20;;;;;;5074742;28;20021;-60
2021/04/10 01:49:49;;;;;;;6.60;6.20;;;22.30;93.90;;;;;;5074709;28;20021;-60
2021/04/10 01:52:19;;;;;;;6.72;6.22;;;22.20;94.00;;;;;;5074843;28;20040;-60
2021/04/10 01:54:46;;;;;;;6.50;6.00;;;22.30;95.50;;;;;;5074667;28;20031;-59
2021/04/10 01:57:18;;;;;;;6.53;6.13;;;22.50;93.90;;;;;;5074754;28;20411;-59
2021/04/10 01:59:47;;;;;;;6.78;6.18;;;21.80;93.80;;;;;;5074412;28;20024;-60
2021/04/10 02:02:16;;;;;;;6.82;6.30;;;22.10;93.80;;;;;;5074370;28;20031;-60
2021/04/10 02:04:46;;;;;;;6.72;6.22;;;22.30;94.30;;;;;;5074247;28;20021;-60
2021/04/10 02:07:14;;;;;;;;;;;22.10;93.20;;;;;;5074782;28;20025;-59
2021/04/10 02:09:46;;;;;;;6.65;6.10;;;22.20;93.70;;;;;;5074191;28;19912;-60
2021/04/10 02:12:17;;;;;;;6.40;5.90;;;22.10;93.20;;;;;;5074428;28;20064;-60
2021/04/10 02:14:45;;;;;;;7.00;6.43;;;22.10;93.80;;;;;;5074315;28;20023;-59
2021/04/10 02:17:15;;;;;;;6.57;6.18;;;22.10;92.70;;;;;;5074295;28;20028;-59
2021/04/10 02:19:43;;;;;;;7.32;6.78;;;22.30;93.40;;;;;;5073012;28;20024;-59
2021/04/10 02:22:11;;;;;;;7.80;6.47;;;22.50;94.60;;;;;;5073983;28;20056;-59
2021/04/10 02:24:39;;;;;;;7.10;6.60;;;22.90;92.90;;;;;;5074060;28;20058;-59
2021/04/10 02:27:07;;;;;;;6.80;6.40;;;23.20;93.80;;;;;;5074064;28;20028;-59
2021/04/10 02:29:34;;;;;;;7.50;6.80;;;22.60;92.50;;;;;;5073983;28;20056;-59
2021/04/10 02:32:42;;;;;;;7.53;6.45;;;22.50;93.00;;;;;;5073939;28;20024;-59
2021/04/10 02:35:19;;;;;;;6.82;6.13;;;22.70;93.60;;;;;;5065733;28;20040;-59
2021/04/10 02:37:48;;;;;;;7.22;6.75;;;22.70;93.60;;;;;;5072435;28;20029;-59
2021/04/10 02:40:20;;;;;;;6.88;6.38;;;22.70;92.80;;;;;;5073377;28;20526;-59
2021/04/10 02:42:48;;;;;;;6.80;6.28;;;22.70;93.10;;;;;;5073744;28;20468;-60
2021/04/10 02:45:23;;;;;;;7.45;7.03;;;22.80;92.70;;;;;;5073527;28;20055;-60
2021/04/10 02:47:53;;;;;;;7.18;6.68;;;22.80;92.10;;;;;;5073910;28;20358;-59
2021/04/10 02:50:22;;;;;;;7.35;6.75;;;22.40;92.20;;;;;;5073377;28;20036;-59
2021/04/10 02:52:55;;;;;;;7.28;6.80;;;22.40;92.50;;;;;;5073653;28;20020;-61
2021/04/10 02:55:40;;;;;;;7.82;7.32;;;22.40;93.70;;;;;;5073420;28;20394;-59
2021/04/10 02:58:11;;;;;;;7.75;7.18;;;22.50;92.30;;;;;;5073347;28;20027;-60
2021/04/10 03:00:41;;;;;;;7.18;6.78;;;22.60;92.50;;;;;;5073440;28;20480;-60
2021/04/10 03:03:12;;;;;;;7.32;6.75;;;22.10;92.70;;;;;;5073173;28;20104;-60
2021/04/10 03:05:41;;;;;;;7.55;7.10;;;22.10;93.10;;;;;;5073274;28;20024;-60
2021/04/10 03:08:10;;;;;;;7.40;6.90;;;22.20;93.00;;;;;;5073273;28;20051;-60
2021/04/10 03:10:37;;;;;;;6.65;6.20;;;22.20;93.10;;;;;;5071987;28;20060;-60
2021/04/10 03:13:05;;;;;;;7.00;6.60;;;22.50;93.10;;;;;;5073307;28;20024;-59
2021/04/10 03:15:33;;;;;;;6.65;6.15;;;22.80;92.70;;;;;;5073186;28;20021;-60
2021/04/10 03:18:03;;;;;;;6.10;5.80;;;22.90;93.10;;;;;;5073169;28;20017;-60
2021/04/10 03:20:30;;;;;;;6.78;6.38;;;23.50;93.20;;;;;;5072940;28;20480;-59
2021/04/10 03:22:58;;;;;;;6.72;6.22;;;23.50;92.00;;;;;;5073024;28;20031;-59
2021/04/10 03:25:25;;;;;;;6.22;5.70;;;23.30;91.50;;;;;;5072988;28;20032;-60
2021/04/10 03:27:53;;;;;;;6.30;5.75;;;23.70;91.50;;;;;;5073082;28;20476;-60
2021/04/10 03:30:20;;;;;;;6.47;6.07;;;23.70;90.60;;;;;;5072675;28;20016;-58
2021/04/10 03:32:48;;;;;;;6.93;6.53;;;23.60;90.80;;;;;;5071857;28;20025;-60
2021/04/10 03:35:16;;;;;;;6.28;6.00;;;23.50;90.00;;;;;;5072995;28;20024;-60
2021/04/10 03:37:43;;;;;;;6.47;5.88;;;23.70;89.20;;;;;;5073101;28;20473;-60
2021/04/10 03:40:12;;;;;;;6.55;6.00;;;23.70;88.80;;;;;;5072720;28;20408;-59
2021/04/10 03:42:43;;;;;;;6.40;6.00;;;23.70;90.10;;;;;;5072810;28;20488;-60
2021/04/10 03:45:16;;;;;;;6.47;6.07;;;24.00;90.10;;;;;;5072875;28;20074;-60
2021/04/10 03:47:44;;;;;;;6.10;5.60;;;24.20;87.70;;;;;;5072975;28;20019;-60
2021/04/10 03:50:12;;;;;;;6.40;5.93;;;24.30;87.10;;;;;;5071402;28;20063;-60
2021/04/10 03:52:40;;;;;;;6.03;5.63;;;23.90;87.00;;;;;;5072761;28;20095;-60
2021/04/10 03:55:09;;;;;;;6.88;6.28;;;23.80;85.90;;;;;;5072726;28;20108;-60
2021/04/10 03:57:37;;;;;;;6.40;5.95;;;23.60;86.50;;;;;;5072642;28;20077;-59
2021/04/10 04:00:06;;;;;;;6.55;6.15;;;23.90;86.50;;;;;;5072481;28;20028;-60
2021/04/10 04:02:33;;;;;;;5.93;5.60;;;23.70;85.70;;;;;;5072681;28;20488;-59
2021/04/10 04:05:00;;;;;;;5.95;5.65;;;24.00;87.10;;;;;;5072556;28;20025;-60
2021/04/10 04:07:28;;;;;;;5.78;5.43;;;24.30;86.70;;;;;;5072658;28;20393;-60
2021/04/10 04:09:55;;;;;;;6.20;5.80;;;24.00;86.70;;;;;;5072657;28;20033;-60
2021/04/10 04:12:22;;;;;;;6.03;5.72;;;23.70;87.80;;;;;;5072633;28;20024;-59
2021/04/10 04:14:50;;;;;;;6.13;5.47;;;24.20;86.80;;;;;;5072915;28;20028;-60
2021/04/10 04:17:17;;;;;;;5.82;5.50;;;24.40;90.00;;;;;;5072564;28;20025;-61
2021/04/10 04:19:44;;;;;;;5.47;5.03;;;24.30;84.30;;;;;;5072485;28;20030;-61
2021/04/10 04:22:12;;;;;;;6.72;6.25;;;24.20;84.70;;;;;;5072589;28;20097;-61
2021/04/10 04:24:39;;;;;;;5.90;5.45;;;23.70;84.50;;;;;;5072524;28;20476;-62
2021/04/10 04:27:07;;;;;;;5.93;5.60;;;23.80;85.90;;;;;;5072434;28;20021;-59
2021/04/10 04:29:34;;;;;;;6.50;6.00;;;23.90;84.90;;;;;;5072504;28;20115;-60
2021/04/10 04:32:02;;;;;;;6.25;5.85;;;23.90;84.80;;;;;;5054475;28;20028;-61
2021/04/10 04:34:29;;;;;;;5.78;5.38;;;24.00;84.50;;;;;;5072375;28;20032;-60
2021/04/10 04:36:56;;;;;;;5.75;5.35;;;24.00;84.60;;;;;;5072316;28;20016;-59
2021/04/10 04:39:23;;;;;;;5.70;5.20;;;24.00;85.10;;;;;;5070776;28;20040;-61
2021/04/10 04:41:51;;;;;;;5.95;5.55;;;24.10;85.30;;;;;;5072285;28;20020;-60
2021/04/10 04:44:18;;;;;;;5.90;5.60;;;24.30;85.80;;;;;;5075827;28;20021;-61
2021/04/10 04:46:45;;;;;;;6.18;5.70;;;24.00;82.90;;;;;;5076031;28;20024;-60
2021/04/10 04:49:13;;;;;;;5.93;5.53;;;23.80;84.50;;;;;;5075961;28;20353;-59
2021/04/10 04:51:40;;;;;;;6.40;5.90;;;23.70;85.60;;;;;;5075860;28;20024;-60
2021/04/10 04:54:07;;;;;;;5.78;5.47;;;23.40;83.70;;;;;;5075857;28;20016;-62
2021/04/10 04:56:35;;;;;;;5.60;5.30;;;23.60;85.70;;;;;;5075757;28;20024;-61
2021/04/10 04:59:02;;;;;;;6.00;5.60;;;23.80;85.20;;;;;;5075663;28;20017;-59
2021/04/10 05:01:29;;;;;;;5.30;5.00;;;23.90;86.30;;;;;;5075791;28;20017;-61
2021/04/10 05:03:57;;;;;;;5.97;5.57;;;23.80;86.50;;;;;;5075650;28;20542;-60
2021/04/10 05:06:24;;;;;;;5.40;5.00;;;23.70;84.50;;;;;;5075436;28;20480;-60
2021/04/10 05:08:51;;;;;;;5.80;5.38;;;23.50;86.60;;;;;;5075404;28;20017;-60
2021/04/10 05:11:19;;;;;;;5.53;5.05;;;23.40;85.30;;;;;;5073963;28;20112;-58
2021/04/10 05:13:46;;;;;;;5.50;5.10;;;23.40;85.50;;;;;;5075526;28;20033;-60
2021/04/10 05:16:13;;;;;;;5.60;5.20;;;23.50;85.00;;;;;;5075400;28;20071;-60
2021/04/10 05:18:41;;;;;;;7.20;6.57;;;23.40;84.70;;;;;;5075314;28;20484;-60
2021/04/10 05:21:08;;;;;;;6.95;6.45;;;23.50;88.20;;;;;;5075262;28;20028;-59
2021/04/10 05:23:37;;;;;;;6.82;6.40;;;23.60;86.50;;;;;;5075286;28;20485;-60
2021/04/10 05:26:04;;;;;;;8.80;7.40;;;23.60;85.10;;;;;;5075285;28;20025;-61
2021/04/10 05:28:32;;;;;;;6.72;6.32;;;23.20;84.90;;;;;;5075252;28;20024;-61
2021/04/10 05:31:02;;;;;;;6.90;6.50;;;23.20;85.40;;;;;;5075208;28;20025;-60
2021/04/10 05:33:30;;;;;;;7.35;6.75;;;23.10;86.00;;;;;;5075424;28;20503;-60
2021/04/10 05:35:59;;;;;;;6.50;6.20;;;23.20;86.30;;;;;;5075089;28;20120;-60
2021/04/10 05:38:26;;;;;;;6.38;5.90;;;23.30;86.00;;;;;;5074851;28;20044;-60
2021/04/10 05:40:54;;;;;;;6.70;6.20;;;23.30;85.50;;;;;;5073558;28;20077;-60
2021/04/10 05:43:22;;;;;;;7.25;6.75;;;23.40;84.90;;;;;;5075002;28;20020;-60
2021/04/10 05:45:50;;;;;;;6.47;6.00;;;23.10;84.60;;;;;;5074884;28;20028;-58
2021/04/10 05:48:17;;;;;;;5.75;5.45;;;23.00;86.40;;;;;;5074980;28;20380;-60
2021/04/10 05:50:44;;;;;;;6.25;5.90;;;23.00;86.00;;;;;;5074708;28;20024;-61
2021/04/10 05:53:12;;;;;;;6.28;5.95;;;23.20;89.80;;;;;;5074543;28;20052;-60
2021/04/10 05:55:39;;;;;;;6.85;6.28;;;23.10;87.30;;;;;;5074755;28;20020;-61
2021/04/10 05:58:06;;;;;;;6.43;6.00;;;23.20;86.90;;;;;;5074609;28;20111;-60
2021/04/10 06:00:34;;;;;;;6.68;6.38;;;23.20;88.00;;;;;;5074383;28;20469;-60
2021/04/10 06:03:01;;;;;;;7.07;6.50;;;23.10;88.70;;;;;;5073136;28;20036;-60
2021/04/10 06:05:28;;;;;;;6.97;6.40;;;22.90;86.20;;;;;;5074377;28;20017;-60
2021/04/10 06:07:56;;;;;;;6.95;6.45;;;22.80;86.70;;;;;;5074199;28;20021;-61
2021/04/10 06:10:23;;;;;;;7.40;6.70;;;22.70;85.90;;;;;;5074387;28;20021;-60
2021/04/10 06:12:50;;;;;;;7.07;6.57;;;22.60;86.70;;;;;;5074230;28;20028;-59
2021/04/10 06:15:20;;;;;;;7.18;6.68;;;22.60;88.10;;;;;;5074491;28;20048;-60
2021/04/10 06:17:48;;;;;;;6.50;6.10;;;22.60;86.40;;;;;;5074211;28;20024;-60
2021/04/10 06:20:17;;;;;;;6.22;5.93;;;22.40;86.20;;;;;;5073951;28;20032;-60
2021/04/10 06:22:44;;;;;;;6.70;6.30;;;22.30;86.70;;;;;;5074012;28;20097;-60
2021/04/10 06:25:12;;;;;;;6.95;6.45;;;22.20;86.20;;;;;;5074047;28;20104;-60
2021/04/10 06:27:39;;;;;;;6.63;6.30;;;22.20;86.80;;;;;;5073882;28;20484;-62
2021/04/10 06:30:08;;;;;;;6.20;5.85;;;22.10;87.70;;;;;;5073860;28;20536;-59
2021/04/10 06:32:36;;;;;;;6.47;5.97;;;22.10;89.10;;;;;;5073862;28;20021;-59
2021/04/10 06:35:05;;;;;;;7.30;5.70;;;22.10;89.30;;;;;;5073731;28;20036;-60
2021/04/10 06:37:32;;;;;;;6.32;5.80;;;22.00;90.00;;;;;;5073788;28;20415;-59
2021/04/10 06:40:00;;;;;;;6.45;5.95;;;22.00;88.80;;;;;;5073492;28;20041;-61
2021/04/10 06:42:28;;;;;;;6.80;6.50;;;21.90;90.20;;;;;;5073836;28;20554;-59
2021/04/10 06:44:55;;;;;;;7.40;6.80;;;21.80;89.50;;;;;;5073885;28;20021;-60
2021/04/10 06:47:26;;;;;;;6.63;6.22;;;21.80;88.70;;;;;;5073598;28;20024;-59
2021/04/10 06:49:53;;;;;;;7.10;6.57;;;21.70;89.90;;;;;;5073515;28;20024;-60
2021/04/10 06:52:21;;;;;;;6.88;6.43;;;21.60;89.70;;;;;;5073545;28;20078;-60
2021/04/10 06:55:04;;;;;;;6.80;6.25;;;21.50;90.30;;;;;;5073419;28;20027;-59
2021/04/10 06:57:57;;;;;;;6.72;6.25;;;21.50;89.90;;;;;;5073470;28;20020;-59
2021/04/10 07:00:25;;;;;;;6.20;5.80;;;21.30;88.10;;;;;;5066563;28;20047;-59
2021/04/10 07:02:56;;;;;;;6.38;5.43;;;21.20;90.40;;;;;;5073275;28;20043;-60
2021/04/10 07:05:23;;;;;;;6.75;6.40;;;21.10;89.90;;;;;;5073073;28;20019;-60
2021/04/10 07:07:52;;;;;;;7.78;7.10;;;20.90;89.70;;;;;;5072023;28;20115;-60
2021/04/10 07:10:20;;;;;;;6.72;6.32;;;20.90;90.10;;;;;;5073335;28;20028;-60
2021/04/10 07:12:48;;;;;;;6.78;6.28;;;20.80;90.10;;;;;;5073245;28;20021;-60
2021/04/10 07:15:18;;;;;;;6.82;6.40;;;20.70;90.10;;;;;;5073104;28;20040;-60
2021/04/10 07:17:51;;;;;;;7.10;6.60;;;20.60;90.30;;;;;;5072034;28;20392;-60
2021/04/10 07:20:29;;;;;;;6.68;6.07;;;20.60;90.70;;;;;;5073116;28;20523;-60
2021/04/10 07:23:05;;;;;;;6.53;6.05;;;20.50;90.60;;;;;;5073113;28;20496;-60
2021/04/10 07:25:38;;;;;;;7.43;6.93;;;20.50;90.70;;;;;;5073064;28;20024;-60
2021/04/10 07:28:27;;;;;;;6.90;6.50;;;20.40;91.10;;;;;;5073022;28;20027;-61
2021/04/10 07:31:06;;;;;;;7.13;6.57;;;20.40;91.00;;;;;;5072887;28;20515;-62
2021/04/10 07:33:35;;;;;;;7.60;7.10;;;20.30;91.10;;;;;;5072878;28;20021;-61
2021/04/10 07:36:05;;;;;;;6.80;6.20;;;20.30;91.20;;;;;;5072990;28;20485;-61
2021/04/10 07:38:35;;;;;;;7.00;6.60;;;20.20;91.90;;;;;;5073017;28;20117;-60
2021/04/10 07:41:24;;;;;;;7.30;6.80;;;20.10;91.40;;;;;;5072893;28;20506;-60
2021/04/10 07:43:51;;;;;;;7.32;6.70;;;20.00;91.50;;;;;;5072614;28;20374;-60
2021/04/10 07:46:20;;;;;;;7.60;7.00;;;19.90;91.70;;;;;;5072965;28;20481;-59
2021/04/10 07:49:10;;;;;;;7.20;6.80;;;19.90;91.60;;;;;;5072873;28;20096;-59
2021/04/10 07:51:56;;;;;;;7.25;6.75;;;19.80;92.10;;;;;;5072733;28;20388;-60
2021/04/10 07:54:33;;;;;;;6.88;6.38;;;19.70;92.20;;;;;;5072747;28;20096;-60
2021/04/10 07:57:11;;;;;;;6.75;6.13;;;19.70;91.90;;;;;;5072818;28;20096;-59
2021/04/10 07:59:50;;;;;;;7.00;6.30;;;19.60;92.10;;;;;;5072664;28;20025;-59
2021/04/10 08:02:19;;;;;;;6.55;5.95;;;19.50;92.30;;;;;;5072819;28;20024;-59
2021/04/10 08:05:08;;;;;;;6.40;5.90;;;19.40;93.40;;;;;;5072509;28;20377;-60
2021/04/10 08:07:36;;;;;;;6.80;6.30;;;19.30;93.00;;;;;;5072649;28;20104;-59
2021/04/10 08:10:08;;;;;;;6.78;6.30;;;19.30;92.20;;;;;;5072619;28;20473;-60
2021/04/10 08:12:38;;;;;;;6.65;6.13;;;19.30;92.30;;;;;;5072707;28;20395;-60
2021/04/10 08:15:08;;;;;;;6.93;6.20;;;19.20;92.20;;;;;;5072714;28;20020;-60
2021/04/10 08:17:39;;;;;;;6.10;5.70;;;19.10;92.60;;;;;;5075185;28;20422;-60
2021/04/10 08:20:18;;;;;;;6.75;6.10;;;19.10;92.80;;;;;;5076426;28;20349;-59
2021/04/10 08:22:46;;;;;;;7.47;6.80;;;19.00;92.90;;;;;;5076344;28;20028;-59
2021/04/10 08:25:27;;;;;;;7.43;6.70;;;19.00;93.00;;;;;;5076372;28;20027;-60
2021/04/10 08:27:57;;;;;;;7.00;6.60;;;18.90;92.90;;;;;;5075240;28;20021;-59
2021/04/10 08:30:25;;;;;;;6.57;5.97;;;18.90;93.00;;;;;;5076187;28;20032;-60
2021/04/10 08:32:53;;;;;;;8.88;7.53;;;18.80;92.90;;;;;;5076226;28;20032;-60
2021/04/10 08:35:21;;;;;;;7.60;6.97;;;18.80;93.10;;;;;;5076137;28;20020;-59
2021/04/10 08:38:01;;;;;;;6.82;6.25;;;18.70;92.80;;;;;;5075947;28;20017;-59
2021/04/10 08:40:30;;;;;;;6.40;5.90;;;18.70;93.00;;;;;;5075854;28;20452;-60
2021/04/10 08:43:00;;;;;;;7.95;6.57;;;18.70;93.50;;;;;;5074756;28;20024;-61
2021/04/10 08:45:32;;;;;;;6.77;6.20;;;18.60;93.20;;;;;;5075931;28;20106;-59
2021/04/10 08:48:09;;;;;;;6.95;6.43;;;18.60;93.40;;;;;;5075858;28;20025;-59
2021/04/10 08:50:38;;;;;;;6.93;6.20;;;18.60;94.10;;;;;;5075761;28;20025;-60
2021/04/10 08:53:27;;;;;;;6.00;5.60;;;18.50;94.10;;;;;;5075943;28;20024;-60
2021/04/10 08:55:56;;;;;;;6.38;5.97;;;18.50;94.50;;;;;;5075802;28;20028;-60
2021/04/10 08:58:25;;;;;;;6.93;6.45;;;18.40;93.90;;;;;;5074728;28;20113;-60
2021/04/10 09:01:06;;;;;;;7.00;6.40;;;18.40;94.10;;;;;;5075594;28;20029;-60
2021/04/10 09:03:49;;;;;;;7.47;6.72;;;18.30;94.20;;;;;;5075590;28;20477;-60
2021/04/10 09:06:31;;;;;;;7.55;6.95;;;18.30;93.90;;;;;;5075829;28;20025;-59
2021/04/10 09:09:19;;;;;;;7.53;6.80;;;18.30;94.10;;;;;;5075561;28;20024;-59
2021/04/10 09:11:50;;;;;;;6.97;6.47;;;18.20;94.00;;;;;;5075511;28;20025;-66
2021/04/10 09:14:43;;;;;;;6.68;6.03;;;18.10;93.90;;;;;;5075467;28;20064;-61
2021/04/10 09:17:11;;;;;;;7.15;6.65;;;18.10;94.10;;;;;;5075452;28;20028;-60
2021/04/10 09:19:41;;;;;;;7.25;6.38;;;18.10;94.20;;;;;;5075122;28;20038;-59
2021/04/10 09:22:15;;;;;;;6.97;6.38;;;18.10;94.20;;;;;;5075240;28;20435;-59
2021/04/10 09:24:44;;;;;;;6.35;5.85;;;18.00;94.60;;;;;;5075527;28;20384;-60
2021/04/10 09:27:28;;;;;;;7.00;6.53;;;18.00;95.10;;;;;;5075212;28;20036;-59
2021/04/10 09:30:00;;;;;;;6.78;6.28;;;17.90;94.60;;;;;;5074608;28;20025;-59
2021/04/10 09:32:43;;;;;;;7.45;6.65;;;17.90;94.90;;;;;;5075118;28;20025;-60
2021/04/10 09:35:13;;;;;;;6.72;6.20;;;17.90;94.20;;;;;;5075265;28;20029;-59
2021/04/10 09:37:50;;;;;;;6.35;5.75;;;17.90;94.90;;;;;;5075121;28;20021;-60
2021/04/10 09:40:26;;;;;;;5.53;5.03;;;17.90;96.00;;;;;;5074623;28;20074;-60
2021/04/10 09:43:03;;;;;;;6.40;5.90;;;17.90;94.60;;;;;;5073519;28;20021;-59
2021/04/10 09:45:34;;;;;;;6.47;5.97;;;17.80;94.80;;;;;;5075316;28;20048;-59
2021/04/10 09:48:05;;;;;;;8.60;6.55;;;17.80;95.00;;;;;;5074757;28;20024;-59
2021/04/10 09:50:33;;;;;;;6.80;6.20;;;17.70;94.80;;;;;;5074644;28;20035;-59
2021/04/10 09:53:03;;;;;;;6.50;6.03;;;17.70;94.70;;;;;;5074718;28;20044;-60
2021/04/10 09:55:33;;;;;;;6.60;6.05;;;17.70;94.20;;;;;;5074725;28;20078;-60
2021/04/10 09:58:04;;;;;;;6.45;6.05;;;17.70;94.00;;;;;;5074683;28;20021;-62
2021/04/10 10:00:36;;;;;;;7.35;6.68;;;17.70;94.00;;;;;;5074892;28;20498;-66
2021/04/10 10:03:08;;;;;;;7.13;6.57;;;17.70;94.10;;;;;;5074547;28;20099;-59
2021/04/10 10:05:40;;;;;;;6.95;6.35;;;17.60;94.40;;;;;;5074807;28;20017;-60
2021/04/10 10:08:10;;;;;;;7.68;7.10;;;17.50;94.30;;;;;;5074518;28;20025;-61
2021/04/10 10:10:42;;;;;;;7.93;7.35;;;17.50;94.80;;;;;;5074559;28;20025;-61
2021/04/10 10:13:15;;;;;;;9.82;7.57;;;17.40;94.50;;;;;;5074503;28;20387;-58
2021/04/10 10:15:47;;;;;;;7.60;6.90;;;17.40;94.50;;;;;;5074318;28;20035;-59
2021/04/10 10:18:14;;;;;;;8.65;7.88;;;17.30;94.40;;;;;;5074430;28;20031;-60
2021/04/10 10:21:05;;;;;;;8.23;7.55;;;17.30;94.20;;;;;;5074082;28;20024;-59
2021/04/10 10:23:41;;;;;;;8.90;8.00;;;17.20;94.30;;;;;;5065175;28;20564;-59
2021/04/10 10:26:17;;;;;;;11.13;8.18;;;17.20;94.40;;;;;;5072847;28;20029;-61
2021/04/10 10:28:51;;;;;;;9.98;8.93;;;17.20;94.70;;;;;;5074056;28;20032;-64
2021/04/10 10:31:20;;;;;;;9.93;8.80;;;17.10;94.70;;;;;;5074135;28;20052;-61
2021/04/10 10:33:48;;;;;;;9.55;8.65;;;17.10;94.80;;;;;;5073949;28;20020;-59
2021/04/10 10:36:18;;;;;;;10.45;9.05;;;17.00;94.60;;;;;;5074043;28;20032;-60
2021/04/10 10:38:47;;;;;;;9.55;8.70;;;17.10;94.60;;;;;;5073753;28;20052;-60
2021/04/10 10:41:18;;;;;;;10.03;9.17;;;17.00;94.80;;;;;;5072898;28;20443;-60
2021/04/10 10:43:46;;;;;;;10.43;9.35;;;16.90;94.70;;;;;;5074142;28;20021;-59
2021/04/10 10:46:21;;;;;;;10.30;9.27;;;16.90;95.00;;;;;;5072431;28;20448;-60
2021/04/10 10:48:50;;;;;;;9.95;8.88;;;16.90;94.80;;;;;;5073767;28;20392;-60
2021/04/10 10:51:21;;;;;;;13.33;8.57;;;16.80;95.20;;;;;;5073575;28;20028;-60
2021/04/10 10:53:54;;;;;;;10.07;9.18;;;16.80;95.00;;;;;;5073603;28;20258;-60
2021/04/10 10:56:29;;;;;;;10.18;9.20;;;16.80;95.20;;;;;;5073372;28;20036;-60
2021/04/10 10:59:00;;;;;;;11.73;10.52;;;16.70;95.00;;;;;;5073562;28;20028;-59
2021/04/10 11:01:54;;;;;;;11.40;10.30;;;16.70;95.40;;;;;;5073387;28;20389;-60
2021/04/10 11:04:39;;;;;;;9.95;8.82;;;16.70;95.70;;;;;;5070787;28;20044;-58
2021/04/10 11:07:07;;;;;;;9.88;8.85;;;16.70;95.20;;;;;;5072019;28;20421;-60
2021/04/10 11:09:38;;;;;;;9.50;8.70;;;16.80;94.80;;;;;;5073081;28;20032;-59
2021/04/10 11:12:11;;;;;;;9.73;8.75;;;16.70;95.20;;;;;;5072001;28;20036;-59
2021/04/10 11:14:42;;;;;;;9.77;8.77;;;16.60;95.50;;;;;;5073275;28;20032;-59
2021/04/10 11:17:11;;;;;;;9.98;8.80;;;16.60;95.30;;;;;;5073272;28;20055;-59
2021/04/10 11:19:43;;;;;;;9.32;8.48;;;16.60;94.80;;;;;;5072920;28;20064;-60
2021/04/10 11:22:15;;;;;;;11.05;8.98;;;16.50;94.90;;;;;;5073023;28;20048;-60
2021/04/10 11:24:49;;;;;;;9.35;8.32;;;16.50;95.00;;;;;;5072924;28;20020;-59
2021/04/10 11:27:20;;;;;;;9.30;8.50;;;16.50;94.90;;;;;;5073157;28;20052;-59
2021/04/10 11:29:51;;;;;;;;;;;16.50;95.00;;;;;;5073475;28;20111;-59
2021/04/10 11:32:36;;;;;;;9.50;8.63;;;16.50;94.80;;;;;;5072977;28;19946;-59
2021/04/10 11:35:24;;;;;;;9.25;8.45;;;16.40;95.20;;;;;;5072843;28;20033;-58
2021/04/10 11:38:04;;;;;;;10.13;9.10;;;16.40;95.30;;;;;;5073105;28;20020;-59
2021/04/10 11:40:36;;;;;;;9.88;8.98;;;16.30;95.10;;;;;;5072795;28;20131;-59
2021/04/10 11:43:05;;;;;;;9.43;8.52;;;16.30;95.20;;;;;;5073074;28;20092;-59
2021/04/10 11:45:53;;;;;;;9.90;8.88;;;16.30;95.20;;;;;;5073113;28;20392;-59
2021/04/10 11:48:23;;;;;;;9.75;8.95;;;16.20;95.60;;;;;;5073138;28;20082;-60
2021/04/10 11:50:55;;;;;;;9.65;8.82;;;16.20;95.70;;;;;;5072726;28;20029;-60
2021/04/10 11:53:41;;;;;;;8.95;8.23;;;16.20;95.50;;;;;;5072795;28;20431;-60
2021/04/10 11:56:34;;;;;;;8.93;8.02;;;16.20;95.20;;;;;;5072771;28;20052;-60
2021/04/10 11:59:07;;;;;;;8.68;7.80;;;16.20;95.00;;;;;;5066638;28;20044;-59
2021/04/10 12:01:53;;;;;;;9.23;8.23;;;16.20;95.00;;;;;;5072798;28;20059;-60
2021/04/10 12:04:28;;;;;;;8.48;7.68;;;16.20;95.10;;;;;;5072544;28;20060;-59
2021/04/10 12:07:15;;;;;;;8.60;7.88;;;16.20;95.30;;;;;;5072459;28;20024;-59
2021/04/10 12:09:43;;;;;;;11.30;7.90;;;16.10;95.80;;;;;;5072646;28;20047;-58
2021/04/10 12:12:14;;;;;;;8.93;8.10;;;16.10;95.50;;;;;;5072616;28;20128;-59
2021/04/10 12:14:42;;;;;;;8.60;7.95;;;16.00;95.90;;;;;;5072560;28;20547;-59
2021/04/10 12:17:13;;;;;;;8.82;8.13;;;15.90;97.00;;;;;;5072531;28;20028;-59
2021/04/10 12:19:42;;;;;;;;;;;15.80;96.40;;;;;;5072875;28;20040;-59
2021/04/10 12:22:10;;;;;;;9.27;8.57;;;15.80;96.00;;;;;;5072513;28;19904;-60
2021/04/10 12:24:38;;;;;;;8.90;8.30;;;15.70;96.60;;;;;;5072513;28;20051;-60
2021/04/10 12:27:05;;;;;;;9.57;8.57;;;15.60;96.70;;;;;;5072546;28;20109;-60
2021/04/10 12:29:33;;;;;;;9.27;8.43;;;15.60;96.50;;;;;;5071136;28;20366;-60
2021/04/10 12:32:00;;;;;;;9.70;8.90;;;15.60;96.60;;;;;;5072484;28;20039;-59
2021/04/10 12:34:27;;;;;;;9.13;8.20;;;15.60;96.70;;;;;;5072491;28;20020;-61
2021/04/10 12:36:54;;;;;;;9.43;8.65;;;15.50;97.00;;;;;;5072280;28;20032;-59
2021/04/10 12:39:22;;;;;;;10.13;9.25;;;15.50;97.10;;;;;;5072154;28;20049;-58
2021/04/10 12:41:49;;;;;;;8.48;7.78;;;15.40;97.70;;;;;;5072485;28;20032;-59
2021/04/10 12:44:18;;;;;;;8.75;8.10;;;15.30;99.00;;;;;;5071052;28;20031;-59
2021/04/10 12:46:45;;;;;;;8.30;7.65;;;15.20;98.70;;;;;;5072278;28;20053;-59
2021/04/10 12:49:13;;;;;;;8.98;8.10;;;15.10;98.00;;;;;;5072200;28;20099;-59
2021/04/10 12:51:40;;;;;;;9.40;8.35;;;15.10;98.20;;;;;;5072329;28;20104;-60
2021/04/10 12:54:07;;;;;;;7.88;7.38;;;15.10;97.80;;;;;;5072149;28;20031;-60
2021/04/10 12:56:35;;;;;;;8.10;7.40;;;15.20;97.50;;;;;;5072234;28;20052;-59
2021/04/10 12:59:02;;;;;;;8.10;7.45;;;15.30;97.10;;;;;;5072202;28;20027;-60
2021/04/10 13:01:29;;;;;;;8.23;7.50;;;15.30;96.90;;;;;;5072343;28;20028;-59
2021/04/10 13:03:56;;;;;;;7.90;7.28;;;15.40;97.00;;;;;;5073428;28;20020;-59
2021/04/10 13:06:25;;;;;;;7.95;7.25;;;15.40;96.70;;;;;;5075693;28;20446;-60
2021/04/10 13:08:52;;;;;;;8.18;7.57;;;15.50;96.80;;;;;;5075524;28;20074;-59